Time;durP1;ratioP1;P1;durP2;ratioP2;P2;SDS_P1;SDS_P2;PMS_P1;PMS_P2;Temp;Humidity;BMP_temperature;BMP_pressure;BME280_temperature;BME280_humidity;BME280_pressure;Samples;Min_cycle;Max_cycle;Signal;HPM_P1;HPM_P2
2022/12/06 00:02:31;;;;;;;34.33;18.52;;;;;;;1.36;100.00;101314.47;5003698;28;20081;-80
2022/12/06 00:05:05;;;;;;;29.63;18.02;;;;;;;1.38;100.00;101315.22;5007793;28;20546;-80
2022/12/06 00:07:31;;;;;;;30.88;18.25;;;;;;;1.26;100.00;101305.53;5021380;28;20046;-81
2022/12/06 00:09:58;;;;;;;32.47;17.60;;;;;;;1.40;100.00;101317.72;5023935;28;20081;-79
2022/12/06 00:12:25;;;;;;;31.77;17.90;;;;;;;1.32;100.00;101321.53;5023207;28;20050;-80
2022/12/06 00:14:52;;;;;;;30.92;18.50;;;;;;;1.32;100.00;101325.84;5013834;28;20053;-80
2022/12/06 00:17:18;;;;;;;29.25;18.33;;;;;;;1.31;100.00;101324.19;5006568;28;20046;-79
2022/12/06 00:19:45;;;;;;;34.88;17.40;;;;;;;1.25;100.00;101306.44;5014075;28;20085;-79
2022/12/06 00:22:14;;;;;;;30.02;17.75;;;;;;;1.29;100.00;101310.53;5019633;28;20074;-79
2022/12/06 00:24:41;;;;;;;40.15;18.45;;;;;;;1.29;100.00;101326.00;5022213;28;20049;-80
2022/12/06 00:27:08;;;;;;;29.02;18.13;;;;;;;1.28;100.00;101320.03;5021145;28;20520;-80
2022/12/06 00:29:35;;;;;;;31.58;18.48;;;;;;;1.35;100.00;101330.03;5019888;28;20125;-79
2022/12/06 00:32:01;;;;;;;35.17;19.85;;;;;;;1.30;100.00;101327.69;5018815;28;20082;-80
2022/12/06 00:34:28;;;;;;;35.45;18.83;;;;;;;1.35;100.00;101325.69;5020460;28;20050;-80
2022/12/06 00:36:55;;;;;;;36.35;18.95;;;;;;;1.31;100.00;101327.59;5021554;28;20046;-80
2022/12/06 00:39:23;;;;;;;32.65;18.77;;;;;;;1.32;100.00;101320.69;5020015;28;20078;-78
2022/12/06 00:41:49;;;;;;;35.47;19.17;;;;;;;1.34;100.00;101324.03;5020087;28;20100;-78
2022/12/06 00:44:16;;;;;;;35.20;18.15;;;;;;;1.34;100.00;101324.03;5019829;28;20512;-78
2022/12/06 00:46:42;;;;;;;35.35;19.20;;;;;;;1.28;100.00;101332.06;5005390;28;20093;-79
2022/12/06 00:49:09;;;;;;;35.90;19.50;;;;;;;1.21;100.00;101307.53;5017120;23;20073;-81
2022/12/06 00:51:37;;;;;;;36.88;18.52;;;;;;;1.30;100.00;101327.69;5034966;28;20076;-79
2022/12/06 00:54:04;;;;;;;38.05;18.85;;;;;;;1.33;100.00;101317.22;5033894;28;20085;-78
2022/12/06 00:56:32;;;;;;;39.03;20.33;;;;;;;1.29;100.00;101307.97;5000726;28;20046;-79
2022/12/06 00:58:59;;;;;;;35.85;19.80;;;;;;;1.34;100.00;101313.72;5000932;28;20054;-78
2022/12/06 01:01:27;;;;;;;36.10;19.90;;;;;;;1.30;100.00;101307.06;5010405;28;20133;-78
2022/12/06 01:03:56;;;;;;;40.97;19.33;;;;;;;1.33;100.00;101310.31;5020195;28;20085;-78
2022/12/06 01:06:26;;;;;;;39.05;19.92;;;;;;;1.34;100.00;101321.44;5020466;28;20164;-79
2022/12/06 01:08:54;;;;;;;44.75;21.35;;;;;;;1.32;100.00;101305.22;5020987;28;20053;-78
2022/12/06 01:11:22;;;;;;;42.08;20.92;;;;;;;1.30;100.00;101312.22;5011839;28;20058;-78
2022/12/06 01:13:51;;;;;;;41.65;20.75;;;;;;;1.30;100.00;101314.78;4999629;28;20046;-78
2022/12/06 01:16:21;;;;;;;39.35;19.95;;;;;;;1.32;100.00;101313.78;5008383;28;20088;-79
2022/12/06 01:18:51;;;;;;;46.15;21.95;;;;;;;1.38;100.00;101319.53;5019769;28;20085;-79
2022/12/06 01:21:19;;;;;;;51.88;22.23;;;;;;;1.31;100.00;101319.03;5019428;28;20077;-78
2022/12/06 01:23:47;;;;;;;42.70;21.20;;;;;;;1.39;100.00;101316.88;5018163;28;20078;-79
2022/12/06 01:26:16;;;;;;;44.78;21.67;;;;;;;1.37;100.00;101317.88;5018703;28;20069;-78
2022/12/06 01:28:43;;;;;;;47.85;21.88;;;;;;;1.39;100.00;101323.78;5018938;28;20397;-78
2022/12/06 01:31:12;;;;;;;55.33;23.02;;;;;;;1.44;100.00;101327.75;5018670;28;20104;-78
2022/12/06 01:33:38;;;;;;;51.03;23.77;;;;;;;1.43;100.00;101320.94;5021432;28;20088;-79
2022/12/06 01:36:05;;;;;;;56.00;24.13;;;;;;;1.43;100.00;101323.53;5019864;28;20571;-78
2022/12/06 01:38:32;;;;;;;54.05;23.58;;;;;;;1.45;100.00;101332.00;5027013;28;20046;-78
2022/12/06 01:41:00;;;;;;;51.72;23.83;;;;;;;1.48;100.00;101333.59;5029115;28;20045;-78
2022/12/06 01:43:36;;;;;;;55.97;22.65;;;;;;;1.44;100.00;101327.75;5022708;28;20054;-78
2022/12/06 01:46:10;;;;;;;48.15;22.00;;;;;;;1.42;100.00;101332.16;5010747;28;20137;-78
2022/12/06 01:48:39;;;;;;;52.47;21.42;;;;;;;1.39;100.00;101329.78;4999131;28;20070;-77
2022/12/06 01:51:07;;;;;;;48.65;21.52;;;;;;;1.47;100.00;101325.03;4997961;28;20054;-77
2022/12/06 01:53:35;;;;;;;43.88;21.33;;;;;;;1.46;100.00;101328.53;5002217;28;20128;-79
2022/12/06 01:56:02;;;;;;;45.45;22.80;;;;;;;1.49;100.00;101312.88;5000401;28;20129;-78
2022/12/06 01:58:35;;;;;;;49.33;23.17;;;;;;;1.59;100.00;101313.22;4999839;28;20111;-79
2022/12/06 02:01:02;;;;;;;49.92;21.50;;;;;;;1.52;100.00;101310.16;5009267;28;20077;-79
2022/12/06 02:03:32;;;;;;;55.10;23.10;;;;;;;1.64;100.00;101309.50;5021992;28;20104;-77
2022/12/06 02:06:03;;;;;;;53.55;24.27;;;;;;;1.64;100.00;101309.50;5002776;28;20089;-79
2022/12/06 02:08:30;;;;;;;58.17;23.15;;;;;;;1.62;100.00;101308.75;4998953;28;20196;-78
2022/12/06 02:10:57;;;;;;;57.83;25.80;;;;;;;1.69;100.00;101311.00;5000262;28;20195;-78
2022/12/06 02:13:25;;;;;;;61.53;26.45;;;;;;;1.63;100.00;101294.94;5000995;28;20078;-80
2022/12/06 02:15:58;;;;;;;57.65;25.83;;;;;;;1.69;100.00;101303.25;5004944;28;20077;-78
2022/12/06 02:18:29;;;;;;;;;;;;;;;1.75;100.00;101308.09;5017679;28;20079;-78
2022/12/06 02:21:06;;;;;;;61.50;25.33;;;;;;;1.71;100.00;101296.28;5017246;28;19989;-78
2022/12/06 02:24:08;;;;;;;56.85;25.60;;;;;;;1.69;100.00;101292.94;5017801;28;20081;-78
2022/12/06 02:26:39;;;;;;;57.63;25.10;;;;;;;1.78;100.00;101297.59;4969733;28;20523;-78
2022/12/06 02:29:33;;;;;;;59.63;25.50;;;;;;;1.71;100.00;101302.25;5016957;28;20535;-79
2022/12/06 02:32:06;;;;;;;54.58;24.77;;;;;;;1.75;100.00;101314.09;5016202;28;20111;-80
2022/12/06 02:34:42;;;;;;;57.75;24.83;;;;;;;1.70;100.00;101299.75;5017806;28;20089;-80
2022/12/06 02:37:13;;;;;;;54.95;23.83;;;;;;;1.72;100.00;101303.09;5018103;28;20084;-78
2022/12/06 02:39:45;;;;;;;54.83;23.30;;;;;;;1.73;100.00;101299.59;5017895;28;20104;-79
2022/12/06 02:42:16;;;;;;;55.13;24.20;;;;;;;1.71;100.00;101289.38;5018443;28;20504;-80
2022/12/06 02:44:48;;;;;;;52.45;22.98;;;;;;;1.72;100.00;101298.78;5019019;28;20061;-79
2022/12/06 02:47:18;;;;;;;46.05;22.42;;;;;;;1.75;100.00;101300.34;5001230;28;20129;-80
2022/12/06 02:49:53;;;;;;;45.80;22.83;;;;;;;1.80;100.00;101296.59;4997637;28;20057;-78
2022/12/06 02:52:24;;;;;;;46.22;23.30;;;;;;;1.78;100.00;101297.59;4999577;28;20472;-80
2022/12/06 02:54:53;;;;;;;48.25;23.33;;;;;;;1.80;100.00;101295.78;4999051;28;20062;-80
2022/12/06 02:57:25;;;;;;;53.78;23.80;;;;;;;1.87;100.00;101297.09;4999658;28;20069;-79
2022/12/06 02:59:52;;;;;;;46.75;23.52;;;;;;;1.86;100.00;101290.28;5000210;28;20108;-80
2022/12/06 03:02:22;;;;;;;50.58;23.05;;;;;;;1.93;100.00;101292.41;5019460;28;20420;-82
2022/12/06 03:05:03;;;;;;;51.78;24.73;;;;;;;1.93;100.00;101287.25;5019858;28;20141;-79
2022/12/06 03:07:37;;;;;;;50.03;24.50;;;;;;;1.89;100.00;101296.06;5020092;28;20092;-79
2022/12/06 03:10:22;;;;;;;48.38;23.23;;;;;;;1.82;100.00;101278.47;5017874;28;20073;-80
2022/12/06 03:12:59;;;;;;;52.85;23.90;;;;;;;1.91;100.00;101277.94;5000235;28;20054;-80
2022/12/06 03:15:36;;;;;;;44.25;23.35;;;;;;;1.92;100.00;101288.16;5003781;28;20501;-81
2022/12/06 03:18:11;;;;;;;51.05;25.17;;;;;;;1.93;100.00;101286.41;5021506;28;20062;-81
2022/12/06 03:20:45;;;;;;;51.17;23.95;;;;;;;1.90;100.00;101273.69;5021595;28;20054;-82
2022/12/06 03:23:15;;;;;;;43.92;23.15;;;;;;;1.93;100.00;101284.66;5020488;28;20057;-81
2022/12/06 03:25:44;;;;;;;52.90;25.30;;;;;;;1.94;100.00;101270.84;5021771;28;20132;-81
2022/12/06 03:28:14;;;;;;;47.97;24.55;;;;;;;1.93;100.00;101283.84;5021929;28;20073;-79
2022/12/06 03:30:45;;;;;;;50.50;24.40;;;;;;;1.86;100.00;101274.78;5017771;28;20054;-82
2022/12/06 03:33:15;;;;;;;53.72;25.02;;;;;;;1.91;100.00;101277.94;5001946;28;20046;-80
2022/12/06 03:35:43;;;;;;;52.45;26.08;;;;;;;1.88;100.00;101278.13;5001844;28;20148;-80
2022/12/06 03:38:12;;;;;;;54.90;25.00;;;;;;;1.96;100.00;101275.94;5004400;28;20057;-82
2022/12/06 03:40:53;;;;;;;47.92;24.55;;;;;;;1.88;100.00;101273.78;5008621;28;20046;-81
2022/12/06 03:43:20;;;;;;;51.28;23.65;;;;;;;1.87;100.00;101266.16;5008425;28;20050;-80
2022/12/06 03:45:55;;;;;;;51.28;21.48;;;;;;;1.96;100.00;101270.75;5013928;28;20077;-79
2022/12/06 03:48:28;;;;;;;50.15;23.48;;;;;;;1.89;100.00;101269.47;5027198;28;20061;-79
2022/12/06 03:50:59;;;;;;;41.53;21.90;;;;;;;1.85;100.00;101265.41;5028121;28;20050;-80
2022/12/06 03:53:26;;;;;;;45.28;22.13;;;;;;;1.91;100.00;101272.75;5027018;28;20113;-80
2022/12/06 03:55:53;;;;;;;49.72;23.20;;;;;;;1.92;100.00;101266.69;5028294;28;20073;-81
2022/12/06 03:58:19;;;;;;;50.47;24.48;;;;;;;1.98;100.00;101277.50;5027034;28;20057;-79
2022/12/06 04:00:47;;;;;;;49.80;23.75;;;;;;;1.95;100.00;101272.50;5022047;28;20428;-81
2022/12/06 04:03:14;;;;;;;50.58;21.73;;;;;;;1.98;100.00;101274.09;5007215;28;20054;-78
2022/12/06 04:05:42;;;;;;;46.05;23.08;;;;;;;1.96;100.00;101271.59;5007217;28;20129;-80
2022/12/06 04:08:08;;;;;;;47.58;22.88;;;;;;;2.01;100.00;101279.09;5005261;28;20082;-80
2022/12/06 04:10:35;;;;;;;47.05;21.98;;;;;;;2.04;100.00;101281.50;5005594;28;20065;-80
2022/12/06 04:13:04;;;;;;;45.33;22.77;;;;;;;2.01;100.00;101284.25;5006381;28;20560;-81
2022/12/06 04:15:34;;;;;;;47.67;24.35;;;;;;;2.03;100.00;101277.25;5009429;28;20072;-80
2022/12/06 04:18:09;;;;;;;49.92;23.38;;;;;;;2.02;100.00;101275.59;5023800;28;20181;-80
2022/12/06 04:23:26;;;;;;;49.28;23.75;;;;;;;2.05;100.00;101270.25;5014590;28;20060;-81
2022/12/06 04:25:52;;;;;;;47.03;22.85;;;;;;;2.11;100.00;101275.09;5004707;28;20065;-79
2022/12/06 04:39:17;;;;;;;52.83;23.30;;;;;;;2.14;100.00;101280.06;5023248;28;20522;-80
2022/12/06 04:44:28;;;;;;;52.58;23.80;;;;;;;2.13;100.00;101273.25;5024887;28;20072;-79
2022/12/06 04:46:55;;;;;;;59.40;23.40;;;;;;;2.14;100.00;101280.06;5010370;28;20145;-80
2022/12/06 04:49:21;;;;;;;53.42;23.88;;;;;;;2.12;100.00;101284.50;5001483;28;20200;-79
2022/12/06 04:51:48;;;;;;;57.83;23.50;;;;;;;2.15;100.00;101284.31;5002554;28;20080;-82
2022/12/06 04:54:14;;;;;;;46.53;21.73;;;;;;;2.17;100.00;101285.06;5007570;28;20058;-78
2022/12/06 04:56:42;;;;;;;56.80;22.88;;;;;;;2.16;100.00;101270.50;5007748;28;20054;-79
2022/12/06 04:59:09;;;;;;;52.85;23.17;;;;;;;2.22;100.00;101283.06;5004229;28;20073;-79
2022/12/06 05:01:36;;;;;;;52.45;22.27;;;;;;;2.16;100.00;101283.41;5019693;28;20064;-80
2022/12/06 05:04:03;;;;;;;58.95;22.80;;;;;;;2.21;100.00;101281.41;5028044;28;20081;-79
2022/12/06 05:06:29;;;;;;;62.03;23.38;;;;;;;2.20;100.00;101279.72;5025954;28;20080;-79
2022/12/06 05:08:56;;;;;;;56.63;23.10;;;;;;;2.22;100.00;101274.47;5022829;28;20068;-81
2022/12/06 05:11:23;;;;;;;52.92;24.38;;;;;;;2.15;100.00;101262.84;5022410;28;20077;-79
2022/12/06 05:13:54;;;;;;;56.42;23.77;;;;;;;2.24;100.00;101277.81;5022286;28;20056;-81
2022/12/06 05:16:21;;;;;;;56.25;23.80;;;;;;;2.15;100.00;101270.59;5023277;28;20461;-80
2022/12/06 05:18:47;;;;;;;56.08;23.20;;;;;;;2.26;100.00;101268.22;5021620;28;20549;-79
2022/12/06 05:21:16;;;;;;;62.35;23.50;;;;;;;2.19;100.00;101267.75;5022363;28;20154;-79
2022/12/06 05:23:43;;;;;;;60.50;25.30;;;;;;;2.17;100.00;101274.75;5021469;28;20420;-80
2022/12/06 05:26:13;;;;;;;57.15;24.33;;;;;;;2.27;100.00;101283.63;5021643;28;20054;-80
2022/12/06 05:28:40;;;;;;;51.65;24.30;;;;;;;2.32;100.00;101283.38;5019754;28;20101;-80
2022/12/06 05:31:08;;;;;;;60.90;25.08;;;;;;;2.28;100.00;101281.88;5020150;28;20092;-80
2022/12/06 05:33:36;;;;;;;53.35;23.23;;;;;;;2.22;100.00;101283.06;5021249;28;20103;-80
2022/12/06 05:36:07;;;;;;;55.40;24.30;;;;;;;2.11;100.00;101275.09;5022457;28;20112;-81
2022/12/06 05:38:34;;;;;;;50.22;24.17;;;;;;;2.19;100.00;101278.06;5022103;28;20042;-81
2022/12/06 05:41:00;;;;;;;52.28;24.40;;;;;;;2.21;100.00;101281.41;5020510;28;20060;-79
2022/12/06 05:43:28;;;;;;;50.75;23.92;;;;;;;2.24;100.00;101283.81;5019762;28;20077;-80
2022/12/06 05:45:55;;;;;;;56.70;25.02;;;;;;;2.22;100.00;101283.06;5008429;28;20064;-80
2022/12/06 05:48:23;;;;;;;60.45;24.65;;;;;;;2.23;100.00;101276.16;5020033;28;20536;-80
2022/12/06 05:50:50;;;;;;;56.58;23.52;;;;;;;2.27;100.00;101278.47;5020885;28;20077;-77
2022/12/06 05:53:17;;;;;;;63.05;24.55;;;;;;;2.28;100.00;101277.56;5020060;28;20516;-81
2022/12/06 05:55:44;;;;;;;56.30;25.20;;;;;;;2.27;100.00;101277.63;5019696;28;20456;-77
2022/12/06 05:58:11;;;;;;;65.25;24.58;;;;;;;2.28;100.00;101272.38;5017402;28;20449;-79
2022/12/06 06:00:38;;;;;;;49.63;23.25;;;;;;;2.33;100.00;101285.88;5013317;28;20129;-78
2022/12/06 06:03:05;;;;;;;58.13;24.70;;;;;;;2.33;100.00;101285.88;4997520;28;20628;-79
2022/12/06 06:05:33;;;;;;;63.28;23.38;;;;;;;2.25;100.00;101275.16;4997630;28;20058;-78
2022/12/06 06:07:59;;;;;;;73.40;24.40;;;;;;;2.28;100.00;101282.72;4997498;28;20138;-79
2022/12/06 06:10:26;;;;;;;53.40;23.42;;;;;;;2.36;100.00;101284.03;4998042;28;20136;-79
2022/12/06 06:12:53;;;;;;;70.30;26.65;;;;;;;2.33;100.00;101280.72;4997880;28;20066;-79
2022/12/06 06:15:19;;;;;;;65.32;23.98;;;;;;;2.42;100.00;101288.81;5015821;28;20560;-78
2022/12/06 06:17:46;;;;;;;71.32;24.77;;;;;;;2.39;100.00;101289.00;5017106;28;20109;-80
2022/12/06 06:20:13;;;;;;;67.38;26.02;;;;;;;2.43;100.00;101287.91;5017251;28;20540;-79
2022/12/06 06:22:42;;;;;;;59.90;24.48;;;;;;;2.49;100.00;101292.72;5016900;28;20104;-79
2022/12/06 06:25:09;;;;;;;59.15;25.50;;;;;;;2.48;100.00;101286.72;5016083;28;20064;-79
2022/12/06 06:27:37;;;;;;;57.92;25.73;;;;;;;2.47;100.00;101291.97;5015444;28;20140;-79
2022/12/06 06:30:05;;;;;;;62.47;24.75;;;;;;;2.45;100.00;101291.22;5016372;28;20516;-80
2022/12/06 06:32:32;;;;;;;58.22;23.83;;;;;;;2.46;100.00;101290.31;5018144;28;20077;-80
2022/12/06 06:34:58;;;;;;;55.00;24.25;;;;;;;2.45;100.00;101286.06;5018458;28;20049;-79
2022/12/06 06:37:25;;;;;;;60.63;25.55;;;;;;;2.50;100.00;101291.81;5017605;28;20167;-79
2022/12/06 06:39:53;;;;;;;63.60;26.52;;;;;;;2.49;100.00;101284.97;5017243;28;20084;-79
2022/12/06 06:42:20;;;;;;;58.75;26.45;;;;;;;2.48;100.00;101284.16;5019166;28;20428;-79
2022/12/06 06:44:46;;;;;;;61.60;26.67;;;;;;;2.51;100.00;101283.13;5018732;28;20077;-78
2022/12/06 06:47:13;;;;;;;58.25;24.25;;;;;;;2.62;100.00;101288.53;5000945;28;20085;-78
2022/12/06 06:49:40;;;;;;;63.90;25.50;;;;;;;2.60;100.00;101286.03;5012425;23;20099;-77
2022/12/06 06:52:07;;;;;;;55.50;24.38;;;;;;;2.60;100.00;101283.44;5020319;28;20046;-77
2022/12/06 06:54:33;;;;;;;56.78;24.27;;;;;;;2.60;100.00;101280.84;5033103;28;20049;-76
2022/12/06 06:57:02;;;;;;;60.65;26.42;;;;;;;2.65;100.00;101275.44;5001034;28;20517;-77
2022/12/06 06:59:28;;;;;;;60.72;26.58;;;;;;;2.68;100.00;101280.41;4991707;28;20061;-77
2022/12/06 07:01:55;;;;;;;61.88;26.33;;;;;;;2.65;100.00;101281.44;4992956;28;20050;-77
2022/12/06 07:04:22;;;;;;;75.28;27.08;;;;;;;2.70;100.00;101282.91;4992065;28;20077;-78
2022/12/06 07:06:48;;;;;;;64.25;26.63;;;;;;;2.73;100.00;101280.97;4992158;28;20061;-76
2022/12/06 07:09:15;;;;;;;61.53;27.52;;;;;;;2.71;100.00;101274.25;5004839;28;20073;-77
2022/12/06 07:11:42;;;;;;;70.45;28.45;;;;;;;2.76;100.00;101279.97;5011792;28;20135;-77
2022/12/06 07:14:09;;;;;;;60.42;26.10;;;;;;;2.72;100.00;101276.72;5003416;28;20585;-78
2022/12/06 07:16:36;;;;;;;62.28;27.02;;;;;;;2.71;100.00;101263.91;4992061;28;20133;-76
2022/12/06 07:19:03;;;;;;;64.45;26.75;;;;;;;2.77;100.00;101273.88;4992211;28;20050;-79
2022/12/06 07:21:30;;;;;;;62.05;27.13;;;;;;;2.82;100.00;101279.63;4991644;28;20564;-73
2022/12/06 07:23:59;;;;;;;65.30;27.77;;;;;;;2.77;100.00;101277.28;4996950;28;20126;-78
2022/12/06 07:26:27;;;;;;;65.95;28.45;;;;;;;2.87;100.00;101275.81;5009973;28;20050;-77
2022/12/06 07:28:56;;;;;;;65.10;26.50;;;;;;;2.82;100.00;101280.44;5004167;28;20042;-77
2022/12/06 07:31:26;;;;;;;54.25;25.75;;;;;;;2.79;100.00;101283.22;5019871;28;20046;-77
2022/12/06 07:33:55;;;;;;;65.03;26.58;;;;;;;2.78;100.00;101285.88;5010238;28;20532;-77
2022/12/06 07:36:22;;;;;;;67.43;27.58;;;;;;;2.83;100.00;101279.53;5002449;28;20066;-75
2022/12/06 07:38:50;;;;;;;56.40;26.23;;;;;;;2.88;100.00;101272.31;4990818;28;20046;-77
2022/12/06 07:46:48;;;;;;;59.85;25.25;;;;;;;2.97;100.00;101287.28;5005293;28;20500;-78
2022/12/06 07:49:15;;;;;;;53.80;23.95;;;;;;;3.03;100.00;101280.06;5011051;28;20133;-75
2022/12/06 07:51:42;;;;;;;53.65;24.33;;;;;;;3.02;100.00;101279.25;5011399;28;20091;-75
2022/12/06 07:54:09;;;;;;;51.78;24.05;;;;;;;2.99;100.00;101282.84;5005348;28;20052;-78
2022/12/06 07:56:35;;;;;;;55.45;25.30;;;;;;;2.98;100.00;101288.09;4991576;28;20141;-77
2022/12/06 07:59:02;;;;;;;55.55;25.40;;;;;;;3.06;100.00;101285.91;4991066;28;20053;-77
2022/12/06 08:01:29;;;;;;;52.30;24.67;;;;;;;3.04;100.00;101292.91;4991721;28;20141;-77
2022/12/06 08:03:58;;;;;;;52.75;24.48;;;;;;;3.05;100.00;101284.22;4991830;28;20081;-78
2022/12/06 08:06:25;;;;;;;56.88;24.02;;;;;;;3.09;100.00;101285.72;4992221;28;20416;-78
2022/12/06 08:08:52;;;;;;;59.33;24.17;;;;;;;3.08;100.00;101286.63;4993329;28;20081;-80
2022/12/06 08:11:19;;;;;;;51.70;22.10;;;;;;;3.13;100.00;101291.53;4995108;28;20054;-79
2022/12/06 08:13:46;;;;;;;50.05;23.48;;;;;;;3.15;100.00;101292.28;4997423;28;20060;-78
2022/12/06 08:16:13;;;;;;;51.25;21.65;;;;;;;3.22;100.00;101298.75;5002127;28;20077;-80
2022/12/06 08:18:39;;;;;;;65.53;23.05;;;;;;;3.24;100.00;101295.16;4992796;28;20049;-76
2022/12/06 08:21:08;;;;;;;50.53;21.73;;;;;;;3.23;100.00;101303.00;4992623;28;20046;-78
2022/12/06 08:23:36;;;;;;;61.65;22.83;;;;;;;3.22;100.00;101307.34;4991814;28;20120;-78
2022/12/06 08:26:04;;;;;;;57.67;22.05;;;;;;;3.42;100.00;101316.47;4994717;28;20525;-78
2022/12/06 08:28:33;;;;;;;63.67;23.48;;;;;;;3.58;100.00;101316.34;4996764;28;20145;-80
2022/12/06 08:31:04;;;;;;;63.67;25.58;;;;;;;3.80;100.00;101314.09;5007881;28;20145;-76
2022/12/06 08:33:32;;;;;;;53.70;21.80;;;;;;;3.49;100.00;101302.22;4996913;28;20129;-78
2022/12/06 08:35:59;;;;;;;53.15;20.50;;;;;;;3.49;100.00;101309.16;4996385;28;20456;-76
2022/12/06 08:38:28;;;;;;;69.57;21.48;;;;;;;3.46;100.00;101304.16;4995441;28;20046;-78
2022/12/06 08:40:54;;;;;;;56.45;20.08;;;;;;;3.52;100.00;101309.81;4996498;28;20137;-78
2022/12/06 08:43:21;;;;;;;55.38;20.65;;;;;;;3.47;100.00;101306.66;4994872;28;20114;-77
2022/12/06 08:45:50;;;;;;;50.92;20.85;;;;;;;3.57;100.00;101318.13;5009239;28;20145;-80
2022/12/06 08:48:17;;;;;;;50.80;20.85;;;;;;;3.64;100.00;101314.22;4996659;28;20118;-79
2022/12/06 08:50:43;;;;;;;52.33;19.75;;;;;;;3.65;100.00;101310.72;5008585;28;20046;-78
2022/12/06 08:53:10;;;;;;;47.42;20.15;;;;;;;3.60;100.00;101302.41;5016455;28;20140;-76
2022/12/06 08:55:39;;;;;;;43.97;20.33;;;;;;;3.65;100.00;101313.31;5016159;28;20077;-78
2022/12/06 08:58:06;;;;;;;45.42;19.40;;;;;;;3.75;100.00;101323.09;5016751;28;20053;-77
2022/12/06 09:00:32;;;;;;;48.78;20.92;;;;;;;3.75;100.00;101318.75;5000203;28;20081;-78
2022/12/06 09:02:59;;;;;;;45.45;20.33;;;;;;;3.74;100.00;101314.50;4997005;28;20089;-78
2022/12/06 09:05:26;;;;;;;40.20;19.67;;;;;;;3.81;100.00;101320.09;4998428;28;20097;-79
2022/12/06 09:07:52;;;;;;;46.22;20.05;;;;;;;3.76;100.00;101323.00;4997129;28;20505;-79
2022/12/06 09:10:19;;;;;;;46.63;20.77;;;;;;;3.77;100.00;101318.66;5008831;28;20089;-74
2022/12/06 09:12:47;;;;;;;43.50;21.13;;;;;;;3.78;100.00;101307.38;5016604;28;20072;-78
2022/12/06 09:15:13;;;;;;;44.13;20.63;;;;;;;3.84;100.00;101323.31;5014171;28;20055;-78
2022/12/06 09:17:40;;;;;;;44.58;20.88;;;;;;;3.91;100.00;101321.19;5014502;28;20093;-78
2022/12/06 09:20:08;;;;;;;40.03;20.40;;;;;;;3.98;100.00;101322.47;5012438;28;20064;-79
2022/12/06 09:22:35;;;;;;;49.08;21.15;;;;;;;4.07;100.00;101326.25;5016319;28;20156;-78
2022/12/06 09:25:02;;;;;;;42.58;20.35;;;;;;;4.13;100.00;101329.28;5016016;28;20472;-76
2022/12/06 09:27:30;;;;;;;44.10;19.77;;;;;;;4.21;100.00;101323.59;5013936;28;20081;-78
2022/12/06 09:29:58;;;;;;;45.25;19.75;;;;;;;4.24;100.00;101329.44;5002784;28;20070;-79
2022/12/06 09:32:25;;;;;;;37.45;18.27;;;;;;;4.19;100.00;101331.47;5012793;28;20132;-79
2022/12/06 09:34:52;;;;;;;42.78;17.63;;;;;;;4.24;100.00;101326.00;5002697;28;20050;-75
2022/12/06 09:37:19;;;;;;;39.55;17.85;;;;;;;4.32;100.00;101331.50;4993450;28;20077;-77
2022/12/06 09:39:49;;;;;;;35.55;18.30;;;;;;;4.28;100.00;101325.69;4992962;28;20049;-78
2022/12/06 09:42:39;;;;;;;38.90;18.20;;;;;;;4.33;100.00;101335.75;4994208;28;20089;-79
2022/12/06 09:45:24;;;;;;;33.83;16.90;;;;;;;4.34;100.00;101335.66;5001940;28;20078;-78
2022/12/06 09:48:22;;;;;;;34.63;16.95;;;;;;;4.39;100.00;101342.28;5011441;28;20248;-75
2022/12/06 09:51:03;;;;;;;32.65;17.20;;;;;;;4.42;100.00;101336.91;5012060;28;20049;-77
2022/12/06 09:53:44;;;;;;;43.75;18.13;;;;;;;4.40;100.00;101328.41;5010781;28;20089;-79
2022/12/06 09:56:23;;;;;;;31.20;16.70;;;;;;;4.46;100.00;101330.59;5013302;28;20082;-78
2022/12/06 09:59:03;;;;;;;34.28;16.48;;;;;;;4.53;100.00;101339.66;5012004;28;20085;-80
2022/12/06 10:01:43;;;;;;;32.92;17.48;;;;;;;4.57;100.00;101328.16;5009721;28;20412;-73
2022/12/06 10:04:46;;;;;;;29.90;16.85;;;;;;;4.56;100.00;101336.88;5003921;28;20073;-78
2022/12/06 10:07:19;;;;;;;;;;;;;;;4.58;100.00;101330.66;4998979;28;20140;-77
2022/12/06 10:10:03;;;;;;;34.00;16.25;;;;;;;4.61;100.00;101330.44;5009858;28;20007;-78
2022/12/06 10:12:45;;;;;;;31.85;16.05;;;;;;;4.68;100.00;101325.69;5011030;28;20046;-79
2022/12/06 10:15:23;;;;;;;30.67;16.45;;;;;;;4.74;100.00;101332.22;5009822;28;20041;-77
2022/12/06 10:18:19;;;;;;;30.75;16.27;;;;;;;4.70;100.00;101325.59;5011029;28;20074;-74
2022/12/06 10:20:52;;;;;;;29.58;16.88;;;;;;;4.74;100.00;101330.44;5010602;28;20057;-77
2022/12/06 10:23:38;;;;;;;31.15;17.02;;;;;;;4.64;100.00;101321.66;5009122;28;20559;-78
2022/12/06 10:26:14;;;;;;;30.23;16.40;;;;;;;4.62;100.00;101307.94;5008285;28;20069;-77
2022/12/06 10:28:47;;;;;;;30.52;15.55;;;;;;;4.61;100.00;101311.47;5006757;28;20053;-78
2022/12/06 10:31:22;;;;;;;28.05;14.85;;;;;;;4.69;100.00;101303.19;5009073;28;20129;-78
2022/12/06 10:33:56;;;;;;;22.20;15.07;;;;;;;4.61;100.00;101306.28;5011555;28;20073;-77
2022/12/06 10:36:36;;;;;;;27.42;14.25;;;;;;;4.61;100.00;101291.56;5010965;28;20437;-78
2022/12/06 10:39:12;;;;;;;28.77;14.82;;;;;;;4.57;100.00;101297.88;4999093;28;20046;-78
2022/12/06 10:41:47;;;;;;;28.20;14.30;;;;;;;4.63;100.00;101302.66;4999304;28;20144;-76
2022/12/06 10:44:22;;;;;;;25.20;13.85;;;;;;;4.70;100.00;101292.72;5000696;28;20128;-77
2022/12/06 10:47:05;;;;;;;25.60;14.57;;;;;;;4.63;100.00;101294.06;5004295;28;20142;-79
2022/12/06 10:49:51;;;;;;;26.48;14.48;;;;;;;4.73;100.00;101289.91;5002939;28;20048;-77
2022/12/06 10:52:27;;;;;;;22.05;13.50;;;;;;;4.72;100.00;101282.25;5001879;28;20133;-78
2022/12/06 10:55:02;;;;;;;23.05;13.65;;;;;;;4.69;100.00;101287.66;5004754;28;20093;-76
2022/12/06 10:57:35;;;;;;;23.85;13.27;;;;;;;4.72;100.00;101288.28;5009365;28;20496;-78
2022/12/06 11:00:07;;;;;;;22.90;12.45;;;;;;;4.71;100.00;101276.25;5004531;28;20482;-76
2022/12/06 11:02:40;;;;;;;19.77;12.18;;;;;;;4.67;100.00;101285.16;5009887;28;20070;-79
2022/12/06 11:05:17;;;;;;;26.25;12.18;;;;;;;4.77;100.00;101278.41;5006440;28;20136;-77
2022/12/06 11:07:48;;;;;;;20.00;11.55;;;;;;;4.73;100.00;101266.56;5010200;28;20080;-78
2022/12/06 11:10:19;;;;;;;19.80;12.45;;;;;;;4.76;100.00;101268.97;5009401;28;20102;-76
2022/12/06 11:12:47;;;;;;;20.67;11.77;;;;;;;4.76;100.00;101258.59;5017576;28;20285;-77
2022/12/06 11:15:18;;;;;;;20.85;11.77;;;;;;;4.87;100.00;101269.06;5005096;28;20054;-76
2022/12/06 11:17:47;;;;;;;21.70;12.23;;;;;;;4.79;100.00;101263.56;5007662;28;20117;-77
2022/12/06 11:20:24;;;;;;;25.42;12.27;;;;;;;4.83;100.00;101267.63;5007984;28;20106;-75
2022/12/06 11:23:04;;;;;;;25.40;12.02;;;;;;;4.86;100.00;101267.41;5003080;28;20054;-77
2022/12/06 11:25:41;;;;;;;20.88;12.15;;;;;;;4.84;100.00;101266.69;5011117;28;20049;-80
2022/12/06 11:28:20;;;;;;;21.48;12.10;;;;;;;4.96;100.00;101265.03;5007480;28;20057;-78
2022/12/06 11:30:49;;;;;;;22.55;12.23;;;;;;;4.99;100.00;101270.84;5008766;28;20046;-79
2022/12/06 11:33:16;;;;;;;19.83;11.95;;;;;;;4.99;100.00;101265.66;5009545;28;20138;-79
2022/12/06 11:35:46;;;;;;;20.08;11.77;;;;;;;4.85;100.00;101254.53;4996517;28;20133;-78
2022/12/06 11:38:15;;;;;;;19.25;11.32;;;;;;;4.98;100.00;101258.81;5004811;28;20100;-77
2022/12/06 11:40:45;;;;;;;21.15;11.27;;;;;;;5.06;100.00;101249.66;5000168;28;20137;-80
2022/12/06 11:43:17;;;;;;;21.08;10.95;;;;;;;5.00;100.00;101241.38;5007295;28;20057;-80
2022/12/06 11:45:44;;;;;;;18.58;10.20;;;;;;;5.04;100.00;101251.53;5005372;28;20524;-78